createdAt,value
2022-08-05T00:00:50.353Z,18.11
2022-08-05T00:01:49.076Z,18.10
2022-08-05T00:02:51.604Z,18.09
2022-08-05T00:03:49.319Z,18.06
2022-08-05T00:04:46.481Z,18.07
2022-08-05T00:06:05.582Z,18.06
2022-08-05T00:07:59.402Z,18.06
2022-08-05T00:08:35.183Z,18.02
2022-08-05T00:09:32.968Z,18.03
2022-08-05T00:10:29.930Z,18.02
2022-08-05T00:11:34.818Z,18.10
2022-08-05T00:12:35.004Z,18.09
2022-08-05T00:13:53.008Z,18.07
2022-08-05T00:14:51.855Z,18.06
2022-08-05T00:15:57.609Z,18.05
2022-08-05T00:16:57.817Z,18.05
2022-08-05T00:24:10.461Z,17.99
2022-08-05T00:25:12.814Z,18.04
2022-08-05T00:26:09.716Z,18.08
2022-08-05T00:27:10.550Z,18.10
2022-08-05T00:28:12.689Z,18.11
2022-08-05T00:29:09.594Z,18.12
2022-08-05T00:30:11.393Z,18.10
2022-08-05T00:31:08.522Z,18.03
2022-08-05T00:32:13.276Z,18.05
2022-08-05T00:33:15.532Z,18.02
2022-08-05T00:34:53.412Z,18.02
2022-08-05T00:36:14.766Z,18.03
2022-08-05T00:37:10.959Z,18.10
2022-08-05T00:38:10.375Z,18.06
2022-08-05T00:39:13.714Z,18.03
2022-08-05T00:40:11.474Z,18.01
2022-08-05T00:41:11.947Z,18.07
2022-08-05T00:42:09.138Z,18.08
2022-08-05T00:43:07.583Z,18.10
2022-08-05T00:44:05.401Z,18.12
2022-08-05T00:45:02.545Z,18.14
2022-08-05T00:45:59.461Z,18.17
2022-08-05T00:47:02.245Z,18.23
2022-08-05T00:54:08.091Z,18.19
2022-08-05T00:55:08.546Z,18.19
2022-08-05T00:56:05.744Z,18.15
2022-08-05T00:57:05.282Z,18.16
2022-08-05T00:58:02.039Z,18.11
2022-08-05T00:59:02.285Z,18.08
2022-08-05T01:00:05.430Z,18.06
2022-08-05T01:01:08.904Z,18.05
2022-08-05T01:02:06.490Z,18.06
2022-08-05T01:03:07.822Z,18.02
2022-08-05T01:04:13.847Z,18.00
2022-08-05T01:05:12.927Z,18.04
2022-08-05T01:06:14.184Z,18.06
2022-08-05T01:07:23.263Z,18.10
2022-08-05T01:08:31.601Z,18.09
2022-08-05T01:09:42.070Z,18.08
2022-08-05T01:10:52.431Z,18.09
2022-08-05T01:11:51.888Z,18.09
2022-08-05T01:13:12.773Z,18.12
2022-08-05T01:14:42.134Z,18.12
2022-08-05T01:15:41.500Z,18.14
2022-08-05T01:17:03.781Z,18.12
2022-08-05T01:25:06.979Z,18.09
2022-08-05T01:26:21.805Z,18.08
2022-08-05T01:27:54.864Z,18.06
2022-08-05T01:29:05.029Z,18.01
2022-08-05T01:30:03.157Z,18.09
2022-08-05T01:31:28.069Z,18.10
2022-08-05T01:32:27.676Z,18.13
2022-08-05T01:33:26.329Z,18.13
2022-08-05T01:34:27.930Z,18.15
2022-08-05T01:35:51.855Z,18.17
2022-08-05T01:36:47.583Z,18.13
2022-08-05T01:37:46.457Z,18.06
2022-08-05T01:38:44.488Z,18.00
2022-08-05T01:39:46.371Z,17.96
2022-08-05T01:40:44.315Z,17.86
2022-08-05T01:41:44.477Z,17.80
2022-08-05T01:42:41.639Z,17.79
2022-08-05T01:43:38.501Z,17.78
2022-08-05T01:44:38.225Z,17.79
2022-08-05T01:45:42.810Z,17.79
2022-08-05T01:46:43.141Z,17.74
2022-08-05T01:53:54.427Z,17.43
2022-08-05T01:54:45.800Z,17.27
2022-08-05T01:55:44.266Z,17.23
2022-08-05T01:58:13.082Z,17.13
2022-08-05T01:58:13.576Z,17.18
2022-08-05T01:59:15.918Z,17.06
2022-08-05T02:00:13.267Z,16.98
2022-08-05T02:01:10.049Z,16.91
2022-08-05T02:02:26.259Z,16.85
2022-08-05T02:03:47.127Z,16.88
2022-08-05T02:05:06.529Z,17.00
2022-08-05T02:06:37.441Z,17.03
2022-08-05T02:07:57.830Z,17.02
2022-08-05T02:09:20.627Z,16.93
2022-08-05T02:10:43.466Z,16.91
2022-08-05T02:12:03.420Z,16.91
2022-08-05T02:13:28.403Z,16.89
2022-08-05T02:15:12.405Z,16.86
2022-08-05T02:16:34.929Z,16.79
2022-08-05T02:23:47.349Z,16.67
2022-08-05T02:25:08.515Z,16.67
2022-08-05T02:26:36.142Z,16.69
2022-08-05T02:27:59.763Z,16.69
2022-08-05T02:29:21.700Z,16.65
2022-08-05T02:30:51.577Z,16.68
2022-08-05T02:32:12.051Z,16.67
2022-08-05T02:33:42.292Z,16.66
2022-08-05T02:35:13.641Z,16.69
2022-08-05T02:36:31.848Z,16.69
2022-08-05T02:37:53.964Z,16.74
2022-08-05T02:39:11.464Z,16.76
2022-08-05T02:40:28.545Z,16.73
2022-08-05T02:42:00.770Z,16.75
2022-08-05T02:43:18.683Z,16.77
2022-08-05T02:44:37.788Z,16.82
2022-08-05T02:45:54.802Z,16.82
2022-08-05T02:47:12.119Z,16.82
2022-08-05T02:54:36.551Z,17.01
2022-08-05T02:56:00.093Z,16.97
2022-08-05T02:58:09.763Z,16.95
2022-08-05T02:58:56.857Z,16.93
2022-08-05T03:00:15.129Z,16.98
2022-08-05T03:01:32.118Z,16.95
2022-08-05T03:02:49.113Z,16.93
2022-08-05T03:04:14.351Z,16.93
2022-08-05T03:06:55.333Z,16.95
2022-08-05T03:07:09.988Z,16.99
2022-08-05T03:08:47.029Z,17.00
2022-08-05T03:10:09.852Z,16.93
2022-08-05T03:11:54.861Z,16.91
2022-08-05T03:13:12.326Z,16.85
2022-08-05T03:14:34.130Z,16.81
2022-08-05T03:16:02.972Z,16.85
2022-08-05T03:17:21.259Z,16.90
2022-08-05T03:23:27.133Z,16.92
2022-08-05T03:24:46.905Z,16.93
2022-08-05T03:26:31.500Z,16.92
2022-08-05T03:27:59.897Z,16.93
2022-08-05T03:29:18.147Z,16.94
2022-08-05T03:30:35.222Z,16.97
2022-08-05T03:31:55.599Z,16.98
2022-08-05T03:33:14.491Z,17.00
2022-08-05T03:34:32.001Z,17.06
2022-08-05T03:35:49.899Z,17.11
2022-08-05T03:37:08.575Z,17.13
2022-08-05T03:38:33.137Z,17.16
2022-08-05T03:40:01.187Z,17.12
2022-08-05T03:41:19.084Z,17.11
2022-08-05T03:42:51.482Z,17.16
2022-08-05T03:44:11.746Z,17.16
2022-08-05T03:45:29.768Z,17.17
2022-08-05T03:47:06.935Z,17.22
2022-08-05T03:55:51.035Z,17.20
2022-08-05T03:56:01.399Z,17.24
2022-08-05T03:56:43.554Z,17.19
2022-08-05T03:58:04.662Z,17.21
2022-08-05T03:59:24.550Z,17.19
2022-08-05T04:00:42.061Z,17.12
2022-08-05T04:02:01.439Z,17.11
2022-08-05T04:03:28.938Z,17.10
2022-08-05T04:04:46.635Z,17.13
2022-08-05T04:06:05.783Z,17.15
2022-08-05T04:07:26.025Z,17.11
2022-08-05T04:08:44.136Z,17.14
2022-08-05T04:10:05.667Z,17.07
2022-08-05T04:11:22.860Z,17.06
2022-08-05T04:13:55.762Z,17.06
2022-08-05T04:15:15.478Z,17.03
2022-08-05T04:16:33.370Z,17.07
2022-08-05T04:24:01.091Z,17.01
2022-08-05T04:25:24.226Z,16.95
2022-08-05T04:26:58.194Z,16.98
2022-08-05T04:28:15.364Z,16.99
2022-08-05T04:29:34.620Z,17.00
2022-08-05T04:30:51.597Z,17.05
2022-08-05T04:32:09.469Z,17.05
2022-08-05T04:34:17.870Z,17.07
2022-08-05T04:35:04.658Z,17.14
2022-08-05T04:36:46.272Z,17.22
2022-08-05T04:38:02.976Z,17.21
2022-08-05T04:39:24.001Z,17.25
2022-08-05T04:40:41.660Z,17.24
2022-08-05T04:42:05.350Z,17.19
2022-08-05T04:43:22.359Z,17.19
2022-08-05T04:44:39.423Z,17.15
2022-08-05T04:45:56.897Z,17.11
2022-08-05T04:47:20.071Z,17.14
2022-08-05T04:53:05.110Z,17.14
2022-08-05T04:54:27.240Z,17.13
2022-08-05T04:56:14.319Z,17.08
2022-08-05T04:57:22.818Z,17.09
2022-08-05T04:58:45.922Z,17.12
2022-08-05T05:00:05.591Z,17.17
2022-08-05T05:02:05.812Z,17.14
2022-08-05T05:03:03.272Z,17.09
2022-08-05T05:04:20.962Z,17.05
2022-08-05T05:06:38.660Z,17.03
2022-08-05T05:07:17.154Z,17.03
2022-08-05T05:08:34.279Z,17.04
2022-08-05T05:09:52.329Z,17.08
2022-08-05T05:11:11.037Z,17.13
2022-08-05T05:12:32.590Z,17.17
2022-08-05T05:13:49.563Z,17.18
2022-08-05T05:15:10.828Z,17.15
2022-08-05T05:16:30.420Z,17.13
2022-08-05T05:24:04.278Z,17.19
2022-08-05T05:25:33.042Z,17.15
2022-08-05T05:26:58.010Z,17.13
2022-08-05T05:28:16.405Z,17.13
2022-08-05T05:30:03.958Z,17.14
2022-08-05T05:31:10.433Z,17.18
2022-08-05T05:32:27.541Z,17.18
2022-08-05T05:34:01.938Z,17.16
2022-08-05T05:35:20.143Z,17.26
2022-08-05T05:36:37.463Z,17.26
2022-08-05T05:37:59.593Z,17.30
2022-08-05T05:39:19.290Z,17.26
2022-08-05T05:40:36.536Z,17.29
2022-08-05T05:41:54.272Z,17.19
2022-08-05T05:43:11.754Z,17.20
2022-08-05T05:44:36.583Z,17.19
2022-08-05T05:45:54.796Z,17.18
2022-08-05T05:47:21.571Z,17.17
2022-08-05T05:53:22.617Z,17.24
2022-08-05T05:54:50.240Z,17.18
2022-08-05T05:56:09.449Z,17.18
2022-08-05T05:57:26.972Z,17.16
2022-08-05T05:59:03.252Z,17.08
2022-08-05T06:00:21.469Z,17.02
2022-08-05T06:01:57.028Z,17.01
2022-08-05T06:03:40.624Z,17.08
2022-08-05T06:04:52.147Z,17.19
2022-08-05T06:06:09.339Z,17.25
2022-08-05T06:07:41.743Z,17.35
2022-08-05T06:08:59.578Z,17.39
2022-08-05T06:10:16.522Z,17.42
2022-08-05T06:11:35.407Z,17.48
2022-08-05T06:12:56.471Z,17.53
2022-08-05T06:14:14.915Z,17.60
2022-08-05T06:15:24.145Z,17.66
2022-08-05T06:16:30.597Z,17.73
2022-08-05T06:17:31.033Z,17.80
2022-08-05T06:23:09.237Z,17.91
2022-08-05T06:24:09.950Z,17.95
2022-08-05T06:25:59.192Z,17.94
2022-08-05T06:26:26.015Z,17.89
2022-08-05T06:28:12.288Z,17.89
2022-08-05T06:28:47.483Z,17.83
2022-08-05T06:29:51.945Z,17.87
2022-08-05T06:30:51.245Z,17.87
2022-08-05T06:31:48.751Z,17.87
2022-08-05T06:32:47.420Z,17.94
2022-08-05T06:34:07.002Z,17.97
2022-08-05T06:36:03.485Z,18.06
2022-08-05T06:37:03.250Z,18.08
2022-08-05T06:38:35.774Z,18.08
2022-08-05T06:39:53.523Z,18.03
2022-08-05T06:41:11.738Z,17.94
2022-08-05T06:42:28.855Z,17.87
2022-08-05T06:43:58.001Z,17.83
2022-08-05T06:45:21.037Z,17.85
2022-08-05T06:46:38.511Z,17.79
2022-08-05T06:53:55.207Z,17.69
2022-08-05T06:55:12.378Z,17.80
2022-08-05T06:56:26.686Z,17.79
2022-08-05T06:58:03.232Z,17.77
2022-08-05T06:58:41.383Z,17.82
2022-08-05T06:59:48.522Z,17.83
2022-08-05T07:00:54.845Z,17.82
2022-08-05T07:01:52.821Z,17.78
2022-08-05T07:02:53.916Z,17.83
2022-08-05T07:03:51.092Z,17.74
2022-08-05T07:04:47.830Z,17.67
2022-08-05T07:05:46.211Z,17.67
2022-08-05T07:06:43.417Z,17.69
2022-08-05T07:07:43.315Z,17.73
2022-08-05T07:08:47.589Z,17.82
2022-08-05T07:09:48.404Z,17.79
2022-08-05T07:10:55.342Z,17.77
2022-08-05T07:11:52.449Z,17.76
2022-08-05T07:13:07.755Z,17.79
2022-08-05T07:14:29.939Z,17.80
2022-08-05T07:16:01.296Z,17.75
2022-08-05T07:17:58.540Z,17.68
2022-08-05T07:23:02.804Z,17.71
2022-08-05T07:24:01.564Z,17.64
2022-08-05T07:24:59.254Z,17.63
2022-08-05T07:25:56.952Z,17.47
2022-08-05T07:26:54.047Z,17.39
2022-08-05T07:27:58.527Z,17.38
2022-08-05T07:28:59.790Z,17.33
2022-08-05T07:30:24.367Z,17.23
2022-08-05T07:31:16.891Z,17.05
2022-08-05T07:32:14.612Z,16.99
2022-08-05T07:33:16.388Z,16.92
2022-08-05T07:34:13.941Z,16.92
2022-08-05T07:36:04.400Z,16.86
2022-08-05T07:36:29.935Z,16.88
2022-08-05T07:37:29.112Z,16.90
2022-08-05T07:38:43.748Z,16.90
2022-08-05T07:40:25.891Z,16.93
2022-08-05T07:41:00.341Z,16.92
2022-08-05T07:42:13.588Z,16.91
2022-08-05T07:43:20.199Z,16.87
2022-08-05T07:44:19.441Z,16.74
2022-08-05T07:45:16.462Z,16.71
2022-08-05T07:46:29.319Z,16.73
2022-08-05T07:47:27.356Z,16.73
2022-08-05T07:53:50.419Z,16.57
2022-08-05T07:54:49.362Z,16.47
2022-08-05T07:56:05.403Z,16.32
2022-08-05T07:57:22.834Z,16.31
2022-08-05T07:58:57.468Z,16.37
2022-08-05T07:59:39.755Z,16.40
2022-08-05T08:00:37.715Z,16.36
2022-08-05T08:01:34.720Z,16.30
2022-08-05T08:03:15.282Z,16.27
2022-08-05T08:03:48.999Z,16.26
2022-08-05T08:04:48.915Z,16.29
2022-08-05T08:05:49.422Z,16.26
2022-08-05T08:06:49.357Z,16.26
2022-08-05T08:07:59.522Z,16.30
2022-08-05T08:08:57.499Z,16.41
2022-08-05T08:09:55.145Z,16.48
2022-08-05T08:10:52.017Z,16.48
2022-08-05T08:12:00.229Z,16.51
2022-08-05T08:13:01.556Z,16.41
2022-08-05T08:14:01.131Z,16.38
2022-08-05T08:15:02.268Z,16.36
2022-08-05T08:16:35.426Z,16.35
2022-08-05T08:17:16.965Z,16.40
2022-08-05T08:24:14.055Z,16.05
2022-08-05T08:25:16.266Z,16.04
2022-08-05T08:26:14.628Z,16.05
2022-08-05T08:27:11.339Z,16.07
2022-08-05T08:28:18.368Z,16.15
2022-08-05T08:30:05.038Z,16.12
2022-08-05T08:30:47.604Z,16.15
2022-08-05T08:31:46.369Z,16.10
2022-08-05T08:32:45.082Z,16.00
2022-08-05T08:33:42.838Z,15.89
2022-08-05T08:34:40.663Z,15.80
2022-08-05T08:35:41.031Z,15.82
2022-08-05T08:36:47.718Z,15.71
2022-08-05T08:37:53.589Z,15.60
2022-08-05T08:38:55.727Z,15.59
2022-08-05T08:39:53.852Z,15.63
2022-08-05T08:40:51.642Z,15.59
2022-08-05T08:41:52.067Z,15.56
2022-08-05T08:42:56.537Z,15.60
2022-08-05T08:45:18.597Z,15.64
2022-08-05T08:45:24.390Z,15.60
2022-08-05T08:46:23.994Z,15.72
2022-08-05T08:48:05.702Z,15.74
2022-08-05T08:53:45.475Z,15.69
2022-08-05T08:54:43.076Z,15.72
2022-08-05T08:56:02.882Z,15.70
2022-08-05T08:56:59.649Z,15.80
2022-08-05T08:57:58.300Z,15.85
2022-08-05T08:58:55.467Z,15.85
2022-08-05T08:59:56.076Z,15.82
2022-08-05T09:00:53.097Z,15.78
2022-08-05T09:01:57.060Z,15.75
2022-08-05T09:02:54.672Z,15.69
2022-08-05T09:03:55.575Z,15.61
2022-08-05T09:05:16.714Z,15.65
2022-08-05T09:06:13.067Z,15.71
2022-08-05T09:07:19.592Z,15.70
2022-08-05T09:08:27.392Z,15.75
2022-08-05T09:09:32.462Z,15.73
2022-08-05T09:10:32.553Z,15.79
2022-08-05T09:11:50.723Z,15.86
2022-08-05T09:12:51.129Z,15.85
2022-08-05T09:14:09.701Z,15.88
2022-08-05T09:15:07.428Z,15.92
2022-08-05T09:16:08.245Z,16.02
2022-08-05T09:17:40.890Z,16.09
2022-08-05T09:24:13.214Z,16.40
2022-08-05T09:25:23.834Z,16.44
2022-08-05T09:26:36.778Z,16.55
2022-08-05T09:28:04.504Z,16.62
2022-08-05T09:28:52.878Z,16.61
2022-08-05T09:29:49.822Z,16.56
2022-08-05T09:31:00.954Z,16.43
2022-08-05T09:32:41.723Z,16.49
2022-08-05T09:33:34.889Z,16.51
2022-08-05T09:34:51.784Z,16.48
2022-08-05T09:36:07.844Z,16.60
2022-08-05T09:37:17.136Z,16.69
2022-08-05T09:38:18.294Z,16.67
2022-08-05T09:39:27.658Z,16.70
2022-08-05T09:40:51.832Z,16.81
2022-08-05T09:42:03.817Z,16.90
2022-08-05T09:43:01.328Z,16.97
2022-08-05T09:43:58.740Z,17.03
2022-08-05T09:44:57.216Z,17.01
2022-08-05T09:46:06.829Z,17.05
2022-08-05T09:47:14.068Z,17.09
2022-08-05T09:53:55.319Z,17.39
2022-08-05T09:55:56.620Z,17.63
2022-08-05T09:56:35.707Z,17.85
2022-08-05T09:57:40.029Z,17.85
2022-08-05T09:58:41.691Z,17.84
2022-08-05T09:59:39.348Z,17.89
2022-08-05T10:00:36.115Z,17.96
2022-08-05T10:01:36.370Z,18.05
2022-08-05T10:02:43.457Z,18.22
2022-08-05T10:03:58.925Z,18.44
2022-08-05T10:04:56.421Z,18.48
2022-08-05T10:06:15.524Z,18.49
2022-08-05T10:07:20.098Z,18.45
2022-08-05T10:08:37.439Z,18.43
2022-08-05T10:09:44.993Z,18.44
2022-08-05T10:10:44.935Z,18.49
2022-08-05T10:11:42.098Z,18.51
2022-08-05T10:12:50.069Z,18.28
2022-08-05T10:13:49.158Z,18.23
2022-08-05T10:14:46.418Z,18.25
2022-08-05T10:15:44.034Z,18.22
2022-08-05T10:16:52.276Z,18.20
2022-08-05T10:23:59.457Z,18.44
2022-08-05T10:24:54.102Z,18.65
2022-08-05T10:25:50.877Z,18.76
2022-08-05T10:26:52.361Z,18.60
2022-08-05T10:28:13.703Z,18.44
2022-08-05T10:29:07.862Z,18.43
2022-08-05T10:31:20.478Z,18.65
2022-08-05T10:32:52.339Z,19.05
2022-08-05T10:32:53.300Z,18.84
2022-08-05T10:33:57.010Z,19.21
2022-08-05T10:34:55.392Z,19.51
2022-08-05T10:35:59.159Z,19.98
2022-08-05T10:36:56.991Z,20.38
2022-08-05T10:37:54.267Z,20.59
2022-08-05T10:39:01.159Z,20.71
2022-08-05T10:40:17.874Z,20.72
2022-08-05T10:41:50.740Z,21.01
2022-08-05T10:42:48.273Z,21.40
2022-08-05T10:44:05.645Z,22.44
2022-08-05T10:45:21.249Z,22.97
2022-08-05T10:46:23.800Z,23.67
2022-08-05T10:47:26.910Z,24.26
2022-08-05T10:53:09.336Z,26.16
2022-08-05T10:54:28.484Z,25.97
2022-08-05T10:55:24.861Z,25.68
2022-08-05T10:56:29.167Z,25.43
2022-08-05T10:57:29.538Z,25.27
2022-08-05T10:58:35.868Z,25.25
2022-08-05T11:00:03.500Z,25.01
2022-08-05T11:01:06.184Z,24.95
2022-08-05T11:02:34.863Z,25.53
2022-08-05T11:03:31.393Z,26.40
2022-08-05T11:04:31.664Z,26.74
2022-08-05T11:05:31.544Z,26.50
2022-08-05T11:06:31.101Z,26.67
2022-08-05T11:07:33.056Z,26.78
2022-08-05T11:09:16.867Z,27.26
2022-08-05T11:10:22.639Z,27.95
2022-08-05T11:11:52.440Z,28.34
2022-08-05T11:12:54.187Z,29.39
2022-08-05T11:13:58.306Z,30.21
2022-08-05T11:15:19.262Z,31.10
2022-08-05T11:16:47.491Z,31.18
2022-08-05T11:24:04.472Z,30.44
2022-08-05T11:26:04.137Z,31.40
2022-08-05T11:26:49.611Z,32.28
2022-08-05T11:27:51.890Z,32.98
2022-08-05T11:28:58.082Z,33.61
2022-08-05T11:29:59.742Z,33.92
2022-08-05T11:30:59.846Z,33.93
2022-08-05T11:32:36.634Z,34.13
2022-08-05T11:33:46.124Z,35.33
2022-08-05T11:34:52.063Z,36.26
2022-08-05T11:36:08.170Z,36.66
2022-08-05T11:38:28.240Z,36.41
2022-08-05T11:38:45.371Z,34.99
2022-08-05T11:40:00.520Z,34.24
2022-08-05T11:41:13.987Z,34.00
2022-08-05T11:42:27.952Z,33.82
2022-08-05T11:44:05.409Z,33.31
2022-08-05T11:44:54.027Z,32.73
2022-08-05T11:46:16.165Z,31.94
2022-08-05T11:47:14.236Z,31.30
2022-08-05T11:48:14.742Z,30.88
2022-08-05T11:53:46.893Z,30.75
2022-08-05T11:54:54.966Z,31.93
2022-08-05T11:56:02.707Z,32.54
2022-08-05T11:57:08.820Z,32.42
2022-08-05T11:58:36.423Z,31.99
2022-08-05T11:59:49.591Z,31.86
2022-08-05T12:00:47.246Z,32.23
2022-08-05T12:01:57.642Z,32.71
2022-08-05T12:02:54.484Z,32.67
2022-08-05T12:03:56.346Z,32.82
2022-08-05T12:04:59.336Z,33.56
2022-08-05T12:06:01.587Z,35.18
2022-08-05T12:07:02.192Z,36.34
2022-08-05T12:08:09.137Z,36.55
2022-08-05T12:09:07.425Z,36.28
2022-08-05T12:10:09.598Z,36.08
2022-08-05T12:11:09.026Z,35.48
2022-08-05T12:12:06.946Z,35.59
2022-08-05T12:13:04.677Z,35.97
2022-08-05T12:14:14.450Z,36.43
2022-08-05T12:15:20.977Z,36.78
2022-08-05T12:16:38.363Z,36.69
2022-08-05T12:18:02.863Z,36.40
2022-08-05T12:18:53.887Z,36.09
2022-08-05T12:20:25.538Z,36.82
2022-08-05T12:24:31.004Z,40.50
2022-08-05T12:25:28.633Z,40.40
2022-08-05T12:26:25.745Z,39.97
2022-08-05T12:27:25.442Z,40.30
2022-08-05T12:28:32.423Z,40.41
2022-08-05T12:29:38.889Z,39.80
2022-08-05T12:30:38.336Z,39.09
2022-08-05T12:31:53.064Z,38.25
2022-08-05T12:32:53.713Z,36.50
2022-08-05T12:33:54.829Z,35.16
2022-08-05T12:34:51.780Z,34.05
2022-08-05T12:35:48.634Z,33.72
2022-08-05T12:36:45.965Z,33.29
2022-08-05T12:37:43.625Z,32.89
2022-08-05T12:38:41.389Z,33.47
2022-08-05T12:39:39.767Z,34.72
2022-08-05T12:40:36.477Z,36.00
2022-08-05T12:41:35.235Z,37.48
2022-08-05T12:42:41.012Z,39.11
2022-08-05T12:44:04.244Z,39.51
2022-08-05T12:45:09.432Z,39.12
2022-08-05T12:46:06.719Z,38.49
2022-08-05T12:47:12.609Z,38.44
2022-08-05T12:48:26.807Z,38.88
2022-08-05T12:53:08.506Z,41.04
2022-08-05T12:54:16.797Z,41.41
2022-08-05T12:55:25.458Z,42.13
2022-08-05T12:56:34.490Z,42.54
2022-08-05T12:58:50.580Z,43.83
2022-08-05T12:59:20.836Z,42.98
2022-08-05T13:02:02.060Z,41.81
2022-08-05T13:02:02.930Z,41.29
2022-08-05T13:03:01.436Z,41.45
2022-08-05T13:03:59.785Z,41.70
2022-08-05T13:04:56.719Z,40.94
2022-08-05T13:05:53.757Z,41.05
2022-08-05T13:06:51.903Z,41.40
2022-08-05T13:07:59.241Z,41.10
2022-08-05T13:08:56.339Z,41.99
2022-08-05T13:09:58.921Z,42.24
2022-08-05T13:11:04.378Z,41.86
2022-08-05T13:12:03.766Z,41.61
2022-08-05T13:13:00.562Z,41.18
2022-08-05T13:14:06.170Z,40.81
2022-08-05T13:15:06.228Z,40.42
2022-08-05T13:16:04.476Z,39.47
2022-08-05T13:17:03.185Z,37.45
2022-08-05T13:23:50.544Z,32.06
2022-08-05T13:24:57.236Z,31.99
2022-08-05T13:25:59.513Z,31.42
2022-08-05T13:26:58.053Z,31.12
2022-08-05T13:27:56.427Z,31.16
2022-08-05T13:28:54.474Z,30.97
2022-08-05T13:30:31.648Z,30.64
2022-08-05T13:31:13.131Z,30.36
2022-08-05T13:32:10.951Z,30.12
2022-08-05T13:33:08.481Z,28.91
2022-08-05T13:34:21.230Z,28.46
2022-08-05T13:35:31.413Z,27.62
2022-08-05T13:36:39.760Z,26.95
2022-08-05T13:37:37.133Z,26.42
2022-08-05T13:38:36.225Z,26.02
2022-08-05T13:40:16.336Z,25.64
2022-08-05T13:40:55.815Z,25.54
2022-08-05T13:41:52.859Z,25.48
2022-08-05T13:42:50.180Z,25.50
2022-08-05T13:43:55.042Z,25.43
2022-08-05T13:44:53.339Z,25.29
2022-08-05T13:45:50.821Z,25.24
2022-08-05T13:47:08.575Z,25.15
2022-08-05T13:53:58.022Z,25.89
2022-08-05T13:54:56.365Z,26.12
2022-08-05T13:56:00.214Z,26.39
2022-08-05T13:56:58.853Z,26.89
2022-08-05T13:57:56.585Z,27.29
2022-08-05T13:58:53.933Z,27.55
2022-08-05T13:59:55.457Z,27.59
2022-08-05T14:00:56.042Z,27.65
2022-08-05T14:01:57.892Z,27.83
2022-08-05T14:02:57.241Z,28.14
2022-08-05T14:04:12.954Z,28.41
2022-08-05T14:05:15.346Z,28.71
2022-08-05T14:06:26.645Z,28.86
2022-08-05T14:08:00.248Z,28.79
2022-08-05T14:08:55.401Z,29.33
2022-08-05T14:09:56.492Z,30.42
2022-08-05T14:10:53.439Z,32.02
2022-08-05T14:12:04.075Z,33.39
2022-08-05T14:13:15.404Z,34.31
2022-08-05T14:14:12.603Z,34.55
2022-08-05T14:16:05.345Z,34.62
2022-08-05T14:16:37.690Z,33.98
2022-08-05T14:27:15.508Z,39.16
2022-08-05T14:28:25.973Z,40.08
2022-08-05T14:29:27.063Z,39.56
2022-08-05T14:30:28.438Z,40.10
2022-08-05T14:32:03.726Z,40.19
2022-08-05T14:32:43.982Z,40.64
2022-08-05T14:33:59.592Z,40.17
2022-08-05T14:34:57.713Z,40.08
2022-08-05T14:35:54.950Z,39.87
2022-08-05T14:36:52.033Z,39.10
2022-08-05T14:37:52.156Z,38.54
2022-08-05T14:38:52.112Z,38.09
2022-08-05T14:39:50.294Z,36.89
2022-08-05T14:40:54.397Z,35.65
2022-08-05T14:42:15.917Z,34.80
2022-08-05T14:43:09.231Z,33.76
2022-08-05T14:44:09.608Z,33.29
2022-08-05T14:45:07.113Z,32.90
2022-08-05T14:46:06.071Z,32.58
2022-08-05T14:47:04.688Z,32.31
2022-08-05T14:54:27.094Z,30.45
2022-08-05T14:55:18.953Z,29.91
2022-08-05T14:56:16.256Z,29.79
2022-08-05T14:57:19.636Z,29.61
2022-08-05T14:58:16.657Z,29.14
2022-08-05T14:59:13.511Z,28.70
2022-08-05T15:00:10.954Z,28.57
2022-08-05T15:01:16.177Z,28.44
2022-08-05T15:02:17.197Z,28.44
2022-08-05T15:03:14.405Z,28.24
2022-08-05T15:04:11.978Z,28.32
2022-08-05T15:05:13.337Z,28.24
2022-08-05T15:06:14.828Z,28.18
2022-08-05T15:08:04.475Z,28.33
2022-08-05T15:08:58.544Z,29.44
2022-08-05T15:09:51.177Z,31.57
2022-08-05T15:10:50.671Z,32.32
2022-08-05T15:11:53.036Z,32.03
2022-08-05T15:13:00.960Z,31.48
2022-08-05T15:14:00.851Z,30.80
2022-08-05T15:14:58.855Z,30.34
2022-08-05T15:15:56.513Z,29.97
2022-08-05T15:16:53.442Z,29.55
2022-08-05T15:23:44.122Z,27.58
2022-08-05T15:24:40.991Z,27.42
2022-08-05T15:25:41.070Z,27.28
2022-08-05T15:26:48.912Z,27.20
2022-08-05T15:27:52.046Z,27.12
2022-08-05T15:28:51.965Z,26.95
2022-08-05T15:29:49.026Z,26.69
2022-08-05T15:30:46.529Z,26.16
2022-08-05T15:31:43.487Z,25.84
2022-08-05T15:32:41.300Z,25.60
2022-08-05T15:34:04.495Z,25.44
2022-08-05T15:34:55.295Z,25.18
2022-08-05T15:35:52.198Z,25.05
2022-08-05T15:36:49.355Z,24.93
2022-08-05T15:38:08.643Z,24.90
2022-08-05T15:41:02.071Z,24.99
2022-08-05T15:41:02.880Z,24.94
2022-08-05T15:41:56.267Z,25.16
2022-08-05T15:42:59.755Z,25.23
2022-08-05T15:43:59.826Z,25.36
2022-08-05T15:44:57.064Z,25.46
2022-08-05T15:46:00.790Z,25.53
2022-08-05T15:46:59.292Z,25.69
2022-08-05T15:53:56.441Z,27.20
2022-08-05T15:54:56.660Z,27.59
2022-08-05T15:56:02.043Z,27.99
2022-08-05T15:57:02.091Z,28.00
2022-08-05T15:57:59.467Z,28.10
2022-08-05T15:58:56.813Z,27.87
2022-08-05T15:59:57.671Z,27.74
2022-08-05T16:01:11.945Z,27.69
2022-08-05T16:02:14.473Z,27.88
2022-08-05T16:03:16.890Z,28.16
2022-08-05T16:04:13.696Z,28.60
2022-08-05T16:05:15.088Z,28.65
2022-08-05T16:06:12.357Z,28.45
2022-08-05T16:07:10.840Z,27.88
2022-08-05T16:08:08.919Z,27.50
2022-08-05T16:09:06.433Z,27.15
2022-08-05T16:10:09.576Z,26.80
2022-08-05T16:11:10.414Z,26.40
2022-08-05T16:12:07.911Z,26.13
2022-08-05T16:13:04.809Z,26.01
2022-08-05T16:14:01.990Z,25.83
2022-08-05T16:14:59.616Z,25.45
2022-08-05T16:15:57.954Z,25.39
2022-08-05T16:16:55.041Z,25.30
2022-08-05T16:17:57.478Z,25.23
2022-08-05T16:18:55.625Z,25.09
2022-08-05T16:20:04.905Z,24.98
2022-08-05T16:21:08.672Z,24.74
2022-08-05T16:22:18.670Z,24.68
2022-08-05T16:23:24.751Z,24.91
2022-08-05T16:24:41.348Z,25.16
2022-08-05T16:25:40.301Z,25.31
2022-08-05T16:27:04.832Z,25.59
2022-08-05T16:28:06.412Z,25.64
2022-08-05T16:29:07.051Z,25.75
2022-08-05T16:30:06.340Z,25.83
2022-08-05T16:31:03.812Z,25.87
2022-08-05T16:32:01.100Z,25.96
2022-08-05T16:33:01.282Z,26.09
2022-08-05T16:33:58.280Z,25.93
2022-08-05T16:34:58.982Z,25.92
2022-08-05T16:35:55.835Z,25.79
2022-08-05T16:36:52.647Z,25.83
2022-08-05T16:38:15.337Z,25.95
2022-08-05T16:39:09.930Z,25.97
2022-08-05T16:40:24.915Z,26.01
2022-08-05T16:42:15.337Z,25.99
2022-08-05T16:42:40.255Z,26.04
2022-08-05T16:43:37.222Z,26.07
2022-08-05T16:44:33.905Z,26.12
2022-08-05T16:46:03.551Z,26.27
2022-08-05T16:46:56.016Z,26.56
2022-08-05T16:47:54.159Z,26.55
2022-08-05T16:49:03.071Z,26.29
2022-08-05T16:50:00.121Z,26.09
2022-08-05T16:50:59.366Z,25.98
2022-08-05T16:51:57.174Z,25.89
2022-08-05T16:52:56.393Z,25.77
2022-08-05T16:54:06.049Z,25.69
2022-08-05T16:55:08.447Z,25.46
2022-08-05T16:56:05.768Z,25.29
2022-08-05T16:57:03.815Z,25.09
2022-08-05T16:58:11.741Z,24.95
2022-08-05T16:59:17.274Z,24.80
2022-08-05T17:00:25.791Z,24.67
2022-08-05T17:01:52.550Z,24.44
2022-08-05T17:02:50.322Z,24.25
2022-08-05T17:03:48.152Z,24.13
2022-08-05T17:04:45.240Z,23.97
2022-08-05T17:05:43.300Z,23.88
2022-08-05T17:06:41.864Z,23.80
2022-08-05T17:07:43.492Z,23.75
2022-08-05T17:08:54.168Z,23.68
2022-08-05T17:09:58.179Z,23.62
2022-08-05T17:10:56.407Z,23.60
2022-08-05T17:11:59.697Z,23.61
2022-08-05T17:12:57.569Z,23.58
2022-08-05T17:14:00.516Z,23.56
2022-08-05T17:15:02.961Z,23.54
2022-08-05T17:16:27.615Z,23.58
2022-08-05T17:17:16.576Z,23.49
2022-08-05T17:18:16.738Z,23.38
2022-08-05T17:19:15.961Z,23.37
2022-08-05T17:24:03.673Z,22.96
2022-08-05T17:24:46.364Z,22.85
2022-08-05T17:25:54.120Z,22.64
2022-08-05T17:26:50.946Z,22.49
2022-08-05T17:27:48.104Z,22.39
2022-08-05T17:28:44.774Z,22.32
2022-08-05T17:29:44.147Z,22.29
2022-08-05T17:30:50.745Z,22.28
2022-08-05T17:31:58.665Z,22.29
2022-08-05T17:32:55.911Z,22.23
2022-08-05T17:33:52.722Z,22.20
2022-08-05T17:34:49.632Z,22.19
2022-08-05T17:36:09.625Z,22.18
2022-08-05T17:37:04.619Z,22.18
2022-08-05T17:38:20.037Z,22.17
2022-08-05T17:39:24.272Z,22.13
2022-08-05T17:40:26.774Z,22.47
2022-08-05T17:42:28.385Z,23.11
2022-08-05T17:42:51.388Z,23.54
2022-08-05T17:43:54.267Z,24.01
2022-08-05T17:44:51.632Z,24.19